Time;durP1;ratioP1;P1;durP2;ratioP2;P2;SDS_P1;SDS_P2;PMS_P1;PMS_P2;Temp;Humidity;BMP_temperature;BMP_pressure;BME280_temperature;BME280_humidity;BME280_pressure;Samples;Min_cycle;Max_cycle;Signal;HPM_P1;HPM_P2
2023/05/31 00:00:22;;;;;;;0.40;0.40;;;;;;;15.07;40.43;97105.44;29396;196;63009;-52
2023/05/31 00:00:53;;;;;;;0.40;0.40;;;;;;;15.07;40.75;97105.44;29395;235;64004;-52
2023/05/31 00:01:25;;;;;;;0.43;0.43;;;;;;;15.08;41.28;97107.06;29396;197;63008;-52
2023/05/31 00:01:56;;;;;;;0.40;0.40;;;;;;;15.09;41.57;97108.66;29397;229;63016;-58
2023/05/31 00:02:27;;;;;;;0.40;0.40;;;;;;;15.09;42.01;97114.13;29397;235;63009;-52
2023/05/31 00:03:00;;;;;;;0.40;0.40;;;;;;;15.07;41.73;97116.38;29395;210;64009;-52
2023/05/31 00:03:31;;;;;;;0.40;0.40;;;;;;;15.08;42.13;97112.50;29397;228;63014;-52
2023/05/31 00:04:03;;;;;;;0.40;0.40;;;;;;;15.09;41.49;97114.13;29397;280;63005;-51
2023/05/31 00:04:34;;;;;;;0.40;0.40;;;;;;;15.08;41.99;97112.50;29397;246;63022;-52
2023/05/31 00:05:07;;;;;;;0.40;0.40;;;;;;;15.09;42.48;97119.59;29395;220;64009;-52
2023/05/31 00:05:38;;;;;;;0.40;0.40;;;;;;;15.08;42.98;97117.97;29395;229;63009;-52
2023/05/31 00:06:12;;;;;;;0.40;0.40;;;;;;;15.05;41.43;97113.16;29395;263;63004;-53
2023/05/31 00:06:44;;;;;;;0.40;0.40;;;;;;;15.02;43.04;97125.50;29395;203;63009;-52
2023/05/31 00:07:16;;;;;;;0.40;0.40;;;;;;;15.01;43.78;97112.16;29395;227;63004;-51
2023/05/31 00:07:47;;;;;;;0.40;0.40;;;;;;;14.99;43.97;97123.41;29395;218;63012;-52
2023/05/31 00:08:19;;;;;;;0.50;0.50;;;;;;;14.96;43.62;97123.22;29395;219;63004;-52
2023/05/31 00:08:50;;;;;;;0.40;0.40;;;;;;;14.94;44.97;97128.19;29395;204;63026;-52
2023/05/31 00:09:21;;;;;;;0.50;0.50;;;;;;;14.92;44.25;97125.78;29395;213;63005;-52
2023/05/31 00:09:52;;;;;;;0.50;0.50;;;;;;;14.92;44.21;97124.97;29395;251;63009;-52
2023/05/31 00:10:25;;;;;;;0.40;0.40;;;;;;;14.92;44.01;97122.25;29393;218;64009;-52
2023/05/31 00:10:57;;;;;;;0.40;0.40;;;;;;;14.94;43.01;97117.28;29395;233;63009;-52
2023/05/31 00:11:29;;;;;;;0.40;0.40;;;;;;;14.93;43.62;97126.59;29395;240;63005;-52
2023/05/31 00:12:00;;;;;;;0.40;0.40;;;;;;;14.89;44.04;97125.63;29395;205;63009;-52
2023/05/31 00:12:32;;;;;;;0.40;0.40;;;;;;;14.87;44.42;97133.34;29393;207;64009;-52
2023/05/31 00:13:03;;;;;;;0.40;0.40;;;;;;;14.85;44.06;97125.44;29395;292;63009;-51
2023/05/31 00:13:34;;;;;;;0.40;0.40;;;;;;;14.85;43.14;97124.66;29395;245;63004;-52
2023/05/31 00:14:05;;;;;;;0.40;0.40;;;;;;;14.84;43.25;97120.31;29395;204;63009;-52
2023/05/31 00:14:37;;;;;;;0.40;0.40;;;;;;;14.84;43.45;97123.03;29395;206;63004;-52
2023/05/31 00:15:09;;;;;;;0.50;0.50;;;;;;;14.82;43.42;97114.34;29395;220;63009;-52
2023/05/31 00:15:41;;;;;;;0.40;0.40;;;;;;;14.79;43.39;97118.50;29395;222;63008;-52
2023/05/31 00:16:13;;;;;;;0.40;0.40;;;;;;;14.80;43.73;97122.03;29395;209;63008;-52
2023/05/31 00:16:44;;;;;;;0.43;0.43;;;;;;;14.78;43.62;97121.56;29395;199;63004;-52
2023/05/31 00:17:16;;;;;;;0.50;0.50;;;;;;;14.77;43.99;97122.69;29395;233;63017;-51
2023/05/31 00:17:47;;;;;;;0.40;0.40;;;;;;;14.75;44.38;97123.78;29393;228;64009;-52
2023/05/31 00:18:18;;;;;;;0.40;0.40;;;;;;;14.73;43.07;97128.75;29395;202;63009;-52
2023/05/31 00:18:49;;;;;;;0.40;0.40;;;;;;;14.71;43.36;97125.53;29395;267;63005;-52
2023/05/31 00:19:20;;;;;;;0.40;0.40;;;;;;;14.71;43.06;97120.06;29395;239;63009;-52
2023/05/31 00:19:52;;;;;;;0.50;0.50;;;;;;;14.72;42.89;97118.94;29393;236;64009;-52
2023/05/31 00:20:26;;;;;;;0.50;0.50;;;;;;;14.73;42.89;97115.09;29395;238;63009;-52
2023/05/31 00:20:59;;;;;;;0.88;0.88;;;;;;;14.72;43.69;97124.41;29393;198;64009;-52
2023/05/31 00:21:30;;;;;;;0.50;0.50;;;;;;;14.72;43.47;97124.41;29395;285;63009;-51
2023/05/31 00:22:01;;;;;;;0.50;0.50;;;;;;;14.73;43.59;97114.28;29395;303;63004;-52
2023/05/31 00:22:33;;;;;;;0.50;0.50;;;;;;;14.72;43.26;97123.59;29395;218;63009;-52
2023/05/31 00:23:04;;;;;;;0.50;0.50;;;;;;;14.70;43.26;97115.72;29395;251;63004;-52
2023/05/31 00:23:35;;;;;;;0.40;0.40;;;;;;;14.69;44.31;97126.97;29393;211;64013;-52
2023/05/31 00:24:07;;;;;;;0.50;0.50;;;;;;;14.68;44.54;97131.62;29395;222;63004;-52
2023/05/31 00:24:38;;;;;;;0.50;0.50;;;;;;;14.66;44.95;97131.12;29393;240;64014;-51
2023/05/31 00:25:09;;;;;;;0.50;0.50;;;;;;;14.64;45.29;97130.63;29395;362;63005;-52
2023/05/31 00:25:40;;;;;;;0.50;0.50;;;;;;;14.63;44.97;97131.75;29395;202;63009;-51
2023/05/31 00:26:13;;;;;;;0.40;0.40;;;;;;;14.61;44.69;97134.00;29395;227;63005;-52
2023/05/31 00:26:44;;;;;;;0.50;0.50;;;;;;;14.62;44.82;97129.34;29395;245;63009;-52
2023/05/31 00:27:15;;;;;;;0.47;0.47;;;;;;;14.61;44.27;97128.53;29395;245;63005;-51
2023/05/31 00:27:47;;;;;;;0.40;0.40;;;;;;;14.61;44.16;97120.34;29395;199;63009;-52
2023/05/31 00:28:21;;;;;;;0.40;0.40;;;;;;;14.62;44.06;97123.88;29395;215;63005;-52
2023/05/31 00:28:53;;;;;;;0.40;0.40;;;;;;;14.61;44.13;97120.34;29395;263;63009;-52
2023/05/31 00:29:25;;;;;;;0.50;0.50;;;;;;;14.61;44.05;97119.53;29393;222;64009;-50
2023/05/31 00:29:57;;;;;;;0.50;0.50;;;;;;;14.61;43.89;97125.78;29393;241;64013;-52
2023/05/31 00:30:28;;;;;;;0.40;0.40;;;;;;;14.61;43.54;97123.06;29395;203;63004;-52
2023/05/31 00:30:59;;;;;;;0.40;0.40;;;;;;;14.62;43.24;97119.22;29395;222;63010;-52
2023/05/31 00:31:33;;;;;;;0.40;0.40;;;;;;;14.63;43.11;97115.38;29395;215;63004;-52
2023/05/31 00:32:05;;;;;;;0.40;0.40;;;;;;;14.63;43.27;97112.63;29395;253;63009;-52
2023/05/31 00:32:37;;;;;;;0.50;0.50;;;;;;;14.67;42.20;97107.34;29395;197;63005;-52
2023/05/31 00:33:08;;;;;;;0.50;0.50;;;;;;;14.69;41.46;97110.59;29395;228;63009;-52
2023/05/31 00:33:40;;;;;;;0.40;0.40;;;;;;;14.71;41.45;97109.16;29395;229;63005;-52
2023/05/31 00:34:12;;;;;;;0.47;0.47;;;;;;;14.71;41.40;97100.94;29393;208;64013;-52
2023/05/31 00:34:43;;;;;;;0.50;0.50;;;;;;;14.73;41.18;97101.44;29393;248;64009;-52
2023/05/31 00:35:14;;;;;;;0.50;0.50;;;;;;;14.73;41.75;97100.66;29395;226;63009;-51
2023/05/31 00:35:45;;;;;;;0.50;0.50;;;;;;;14.74;41.89;97110.44;29395;247;63005;-52
2023/05/31 00:36:17;;;;;;;0.50;0.50;;;;;;;14.73;42.08;97106.91;29395;220;63009;-52
2023/05/31 00:36:48;;;;;;;0.40;0.40;;;;;;;14.72;41.99;97107.22;29395;224;63004;-52
2023/05/31 00:37:19;;;;;;;0.50;0.50;;;;;;;14.72;42.28;97109.97;29395;216;63009;-52
2023/05/31 00:37:50;;;;;;;0.45;0.45;;;;;;;14.72;42.62;97107.22;29395;254;63014;-52
2023/05/31 00:38:21;;;;;;;0.40;0.40;;;;;;;14.72;42.87;97110.75;29395;233;63009;-52
2023/05/31 00:38:52;;;;;;;0.50;0.50;;;;;;;14.72;42.79;97110.75;29394;220;63004;-52
2023/05/31 00:39:24;;;;;;;0.50;0.50;;;;;;;14.72;42.57;97109.97;29394;205;64013;-52
2023/05/31 00:39:56;;;;;;;0.40;0.40;;;;;;;14.71;42.95;97120.06;29395;209;63005;-52
2023/05/31 00:40:27;;;;;;;0.40;0.40;;;;;;;14.69;43.86;97111.38;29395;197;63009;-53
2023/05/31 00:40:58;;;;;;;0.40;0.40;;;;;;;14.68;43.71;97126.16;29395;226;63005;-51
2023/05/31 00:41:29;;;;;;;0.50;0.50;;;;;;;14.66;43.90;97120.19;29395;203;63009;-51
2023/05/31 00:42:00;;;;;;;0.40;0.40;;;;;;;14.66;43.42;97116.66;29395;200;63005;-51
2023/05/31 00:42:33;;;;;;;0.40;0.40;;;;;;;14.66;43.27;97120.19;29395;223;63009;-52
2023/05/31 00:43:04;;;;;;;0.40;0.40;;;;;;;14.62;44.97;97124.69;29395;235;63004;-52
2023/05/31 00:43:36;;;;;;;0.40;0.40;;;;;;;14.60;44.15;97129.63;29394;222;64009;-52
2023/05/31 00:44:07;;;;;;;0.40;0.40;;;;;;;14.59;43.44;97122.56;29395;242;63004;-59
2023/05/31 00:44:39;;;;;;;0.45;0.45;;;;;;;14.59;43.46;97117.09;29396;216;63009;-52
2023/05/31 00:45:11;;;;;;;0.50;0.50;;;;;;;14.60;43.28;97121.44;29395;197;63004;-52
2023/05/31 00:45:43;;;;;;;0.50;0.50;;;;;;;14.59;44.41;97125.31;29395;216;63008;-60
2023/05/31 00:46:40;;;;;;;0.40;0.40;;;;;;;14.58;43.89;97120.16;29395;207;63004;-53
2023/05/31 00:47:12;;;;;;;0.50;0.50;;;;;;;14.56;43.07;97120.47;29395;257;63009;-52
2023/05/31 00:47:43;;;;;;;0.50;0.50;;;;;;;14.55;43.59;97121.59;29395;216;63005;-52
2023/05/31 00:48:15;;;;;;;0.40;0.40;;;;;;;14.54;44.89;97124.66;29395;243;63009;-52
2023/05/31 00:48:46;;;;;;;0.40;0.40;;;;;;;14.52;44.43;97122.22;29394;238;64009;-52
2023/05/31 00:49:18;;;;;;;0.50;0.50;;;;;;;14.50;44.71;97118.19;29395;270;63009;-53
2023/05/31 00:49:50;;;;;;;0.47;0.47;;;;;;;14.49;44.58;97120.13;29395;218;63009;-53
2023/05/31 00:50:21;;;;;;;0.50;0.50;;;;;;;14.49;44.66;97117.41;29395;202;63009;-52
2023/05/31 00:50:53;;;;;;;0.50;0.50;;;;;;;14.48;44.46;97118.50;29395;259;63004;-52
2023/05/31 00:51:30;;;;;;;0.50;0.50;;;;;;;14.48;44.02;97121.25;29395;225;63009;-52
2023/05/31 00:52:02;;;;;;;0.45;0.45;;;;;;;14.48;43.51;97114.97;29395;221;63004;-52
2023/05/31 00:52:37;;;;;;;0.40;0.40;;;;;;;14.46;45.15;97130.84;29395;263;63009;-52
2023/05/31 00:53:12;;;;;;;0.50;0.50;;;;;;;14.44;45.75;97124.91;29395;208;63009;-52
2023/05/31 00:53:44;;;;;;;0.50;0.50;;;;;;;14.41;45.12;97123.59;29395;226;63009;-52
2023/05/31 00:54:16;;;;;;;0.50;0.50;;;;;;;14.39;45.14;97123.06;29394;224;64009;-52
2023/05/31 00:54:47;;;;;;;0.40;0.40;;;;;;;14.39;44.89;97117.63;29395;228;63009;-52
2023/05/31 00:55:19;;;;;;;0.43;0.43;;;;;;;14.39;45.14;97125.81;29395;249;63005;-53
2023/05/31 00:55:52;;;;;;;0.50;0.50;;;;;;;14.38;45.64;97126.91;29395;224;63023;-52
2023/05/31 00:56:24;;;;;;;0.40;0.40;;;;;;;14.34;44.40;97115.00;29395;241;63005;-52
2023/05/31 00:56:56;;;;;;;0.50;0.50;;;;;;;14.31;45.29;97121.09;29395;209;63009;-53
2023/05/31 00:57:28;;;;;;;0.50;0.50;;;;;;;14.30;45.42;97122.19;29394;430;64009;-58
2023/05/31 00:58:00;;;;;;;0.40;0.40;;;;;;;14.28;45.29;97117.06;29395;198;63009;-52
2023/05/31 00:58:34;;;;;;;0.50;0.50;;;;;;;14.30;44.80;97124.94;29395;223;63013;-52
2023/05/31 00:59:06;;;;;;;0.40;0.40;;;;;;;14.31;44.27;97121.09;29395;202;63015;-52
2023/05/31 00:59:37;;;;;;;0.40;0.40;;;;;;;14.31;44.78;97115.62;29394;202;64009;-53
2023/05/31 01:00:09;;;;;;;0.40;0.40;;;;;;;14.30;44.57;97112.09;29395;235;63009;-53
2023/05/31 01:00:41;;;;;;;0.50;0.50;;;;;;;14.30;44.99;97119.47;29395;218;63007;-52
2023/05/31 01:01:15;;;;;;;0.50;0.50;;;;;;;14.27;45.31;97117.38;29395;248;63008;-53
2023/05/31 01:01:46;;;;;;;0.40;0.40;;;;;;;14.26;45.63;97123.94;29395;199;63005;-52
2023/05/31 01:02:18;;;;;;;0.50;0.50;;;;;;;14.25;45.47;97122.31;29395;222;63009;-52
2023/05/31 01:02:51;;;;;;;0.50;0.50;;;;;;;14.26;44.91;97129.41;29395;200;63017;-53
2023/05/31 01:03:23;;;;;;;0.50;0.50;;;;;;;14.25;44.87;97119.59;29395;305;63009;-52
2023/05/31 01:03:56;;;;;;;0.40;0.40;;;;;;;14.26;44.30;97118.47;29395;203;63020;-52
2023/05/31 01:04:28;;;;;;;0.40;0.40;;;;;;;14.27;43.69;97109.97;29395;203;63027;-52
2023/05/31 01:05:00;;;;;;;0.50;0.50;;;;;;;14.29;43.76;97109.66;29394;270;64009;-52
2023/05/31 01:05:31;;;;;;;0.50;0.50;;;;;;;14.29;43.81;97115.13;29395;219;63009;-53
2023/05/31 01:06:03;;;;;;;0.40;0.40;;;;;;;14.31;43.45;97118.34;29395;197;63004;-52
2023/05/31 01:06:34;;;;;;;0.40;0.40;;;;;;;14.31;44.09;97112.91;29395;220;63009;-52
2023/05/31 01:07:08;;;;;;;0.40;0.40;;;;;;;14.32;44.14;97111.78;29394;237;64009;-52
2023/05/31 01:07:39;;;;;;;0.40;0.40;;;;;;;14.34;43.84;97120.47;29395;246;63009;-52
2023/05/31 01:08:14;;;;;;;0.40;0.40;;;;;;;14.34;43.47;97110.34;29395;206;63004;-53
2023/05/31 01:08:45;;;;;;;0.40;0.40;;;;;;;14.33;43.40;97111.47;29395;228;63008;-52
2023/05/31 01:09:17;;;;;;;0.40;0.40;;;;;;;14.34;43.65;97115.81;29395;210;63005;-59
2023/05/31 01:09:49;;;;;;;0.40;0.40;;;;;;;14.34;43.42;97120.47;29395;202;63009;-52
2023/05/31 01:10:21;;;;;;;0.40;0.40;;;;;;;14.34;43.38;97117.75;29394;233;64005;-52
2023/05/31 01:10:57;;;;;;;0.40;0.40;;;;;;;14.34;44.11;97125.94;29394;232;64013;-53
2023/05/31 01:11:48;;;;;;;0.50;0.50;;;;;;;14.35;43.40;97122.06;29395;259;63005;-52
2023/05/31 01:13:05;;;;;;;0.50;0.50;;;;;;;14.34;43.58;97113.09;29394;255;64013;-59
2023/05/31 01:14:01;;;;;;;0.50;0.50;;;;;;;14.31;43.20;97112.91;29395;478;63004;-52
2023/05/31 01:15:17;;;;;;;0.40;0.40;;;;;;;14.29;44.37;97123.31;29395;215;63017;-52
2023/05/31 01:16:18;;;;;;;0.50;0.50;;;;;;;14.21;43.57;97121.31;29394;232;64008;-53
2023/05/31 01:16:58;;;;;;;0.50;0.50;;;;;;;14.20;43.71;97114.28;29395;262;63023;-53
2023/05/31 01:18:03;;;;;;;0.50;0.50;;;;;;;14.21;43.05;97115.88;29395;199;63019;-52
2023/05/31 01:18:44;;;;;;;0.50;0.50;;;;;;;14.21;43.63;97121.31;29395;239;63009;-53
2023/05/31 01:19:49;;;;;;;0.50;0.50;;;;;;;14.23;43.94;97119.09;29417;222;63005;-52
2023/05/31 01:20:24;;;;;;;0.50;0.50;;;;;;;14.24;44.18;97115.25;29395;197;63009;-52
2023/05/31 01:20:57;;;;;;;0.43;0.43;;;;;;;14.25;43.48;97122.31;29394;214;64009;-52
2023/05/31 01:22:17;;;;;;;0.50;0.50;;;;;;;14.26;44.05;97123.94;29395;204;63009;-52
2023/05/31 01:23:36;;;;;;;0.43;0.43;;;;;;;14.23;44.47;97130.00;29394;287;64009;-60
2023/05/31 01:24:49;;;;;;;0.47;0.47;;;;;;;14.19;43.92;97118.13;29395;223;63009;-52
2023/05/31 01:25:31;;;;;;;0.50;0.50;;;;;;;14.19;43.82;97118.13;29416;200;64009;-52
2023/05/31 01:26:45;;;;;;;0.50;0.50;;;;;;;14.19;44.51;97116.22;29394;221;64013;-52
2023/05/31 01:27:16;;;;;;;0.50;0.50;;;;;;;14.19;44.86;97121.66;29395;368;63005;-52
2023/05/31 01:27:49;;;;;;;0.50;0.50;;;;;;;14.19;45.36;97120.84;29395;199;63009;-53
2023/05/31 01:28:23;;;;;;;0.50;0.50;;;;;;;14.17;44.55;97123.09;29395;222;63004;-52
2023/05/31 01:28:59;;;;;;;0.50;0.50;;;;;;;14.16;44.83;97121.47;29395;264;63009;-52
2023/05/31 01:29:35;;;;;;;0.50;0.50;;;;;;;14.15;45.43;97128.06;29395;242;63004;-52
2023/05/31 01:30:09;;;;;;;0.50;0.50;;;;;;;14.15;44.59;97117.12;29395;218;63009;-53
2023/05/31 01:30:40;;;;;;;0.50;0.50;;;;;;;14.13;44.96;97117.44;29395;224;63004;-53
2023/05/31 01:31:16;;;;;;;0.50;0.50;;;;;;;14.12;44.85;97121.28;29394;197;64013;-52
2023/05/31 01:31:48;;;;;;;0.50;0.50;;;;;;;14.11;44.40;97116.12;29395;331;63005;-52
2023/05/31 01:32:24;;;;;;;0.50;0.50;;;;;;;14.09;44.47;97119.97;29395;207;63009;-52
2023/05/31 01:32:59;;;;;;;0.50;0.50;;;;;;;14.11;44.97;97116.12;29394;204;64009;-52
2023/05/31 01:33:31;;;;;;;0.50;0.50;;;;;;;14.08;45.26;97123.81;29395;329;63009;-53
2023/05/31 01:34:05;;;;;;;0.50;0.50;;;;;;;14.06;45.04;97117.88;29394;424;64009;-52
2023/05/31 01:34:36;;;;;;;0.43;0.43;;;;;;;14.07;45.23;97121.41;29395;218;63009;-52
2023/05/31 01:35:09;;;;;;;0.50;0.50;;;;;;;14.07;45.03;97122.22;29395;196;63005;-52
2023/05/31 01:35:40;;;;;;;0.50;0.50;;;;;;;14.07;45.35;97121.41;29394;221;64013;-53
2023/05/31 01:36:12;;;;;;;0.50;0.50;;;;;;;14.06;45.47;97120.59;29395;227;63004;-52
2023/05/31 01:36:43;;;;;;;0.50;0.50;;;;;;;14.03;45.30;97121.22;29395;226;63009;-52
2023/05/31 01:37:14;;;;;;;0.50;0.50;;;;;;;14.03;45.25;97120.41;29395;202;63004;-52
2023/05/31 01:37:45;;;;;;;0.50;0.50;;;;;;;14.02;45.67;97125.06;29395;240;63009;-52
2023/05/31 01:38:16;;;;;;;0.50;0.50;;;;;;;14.01;45.57;97123.44;29395;221;63004;-53
2023/05/31 01:38:48;;;;;;;0.47;0.47;;;;;;;14.02;45.71;97119.59;29395;216;63008;-53
2023/05/31 01:39:20;;;;;;;0.50;0.50;;;;;;;14.00;46.15;97127.28;29395;237;63005;-52
2023/05/31 01:39:52;;;;;;;0.50;0.50;;;;;;;13.98;46.56;97132.25;29394;222;64014;-53
2023/05/31 01:40:24;;;;;;;0.50;0.50;;;;;;;13.96;46.44;97126.28;29395;207;63005;-52
2023/05/31 01:40:58;;;;;;;0.50;0.50;;;;;;;13.95;46.60;97130.13;29395;247;63009;-52
2023/05/31 01:41:34;;;;;;;0.50;0.50;;;;;;;13.92;46.39;97133.47;29394;205;64023;-52
2023/05/31 01:42:09;;;;;;;0.50;0.50;;;;;;;13.90;46.23;97127.50;29395;211;63009;-53
2023/05/31 01:42:42;;;;;;;0.50;0.50;;;;;;;13.89;46.36;97133.28;29395;214;63005;-52
2023/05/31 01:43:14;;;;;;;0.50;0.50;;;;;;;13.89;45.94;97133.28;29395;203;63009;-53
2023/05/31 01:43:48;;;;;;;0.50;0.50;;;;;;;13.88;46.00;97127.03;29395;212;63004;-52
2023/05/31 01:44:20;;;;;;;0.50;0.50;;;;;;;13.85;45.74;97124.94;29395;210;63009;-52
2023/05/31 01:44:53;;;;;;;0.50;0.50;;;;;;;13.84;46.08;97134.22;29395;204;63004;-52
2023/05/31 01:45:26;;;;;;;0.50;0.50;;;;;;;13.82;47.56;97139.19;29395;202;63009;-52
2023/05/31 01:45:58;;;;;;;0.50;0.50;;;;;;;13.79;47.91;97147.97;29395;247;63013;-52
2023/05/31 01:46:30;;;;;;;0.50;0.50;;;;;;;13.78;48.13;97146.38;29394;243;64013;-52
2023/05/31 01:47:02;;;;;;;0.50;0.50;;;;;;;13.77;49.00;97155.66;29395;223;63005;-52
2023/05/31 01:47:34;;;;;;;0.40;0.40;;;;;;;13.72;49.10;97148.38;29395;316;63017;-52
2023/05/31 01:48:09;;;;;;;0.50;0.50;;;;;;;13.71;47.77;97143.25;29394;321;64009;-52
2023/05/31 01:48:42;;;;;;;0.50;0.50;;;;;;;13.71;47.19;97145.97;29395;234;63009;-52
2023/05/31 01:49:14;;;;;;;0.50;0.50;;;;;;;13.70;47.18;97138.91;29395;252;63005;-50
2023/05/31 01:49:47;;;;;;;0.50;0.50;;;;;;;13.71;46.97;97145.97;29395;248;63009;-53
2023/05/31 01:50:19;;;;;;;0.50;0.50;;;;;;;13.72;46.61;97147.59;29395;198;63004;-52
2023/05/31 01:50:52;;;;;;;0.50;0.50;;;;;;;13.72;46.91;97142.13;29395;255;63009;-52
2023/05/31 01:51:25;;;;;;;0.50;0.50;;;;;;;13.71;46.55;97140.50;29394;255;64009;-52
2023/05/31 01:51:58;;;;;;;0.50;0.50;;;;;;;13.72;46.24;97142.13;29395;257;63009;-53
2023/05/31 01:52:30;;;;;;;0.50;0.50;;;;;;;13.74;46.17;97145.34;29395;278;63004;-52
2023/05/31 01:53:03;;;;;;;0.50;0.50;;;;;;;13.74;46.01;97139.91;29395;269;63008;-52
2023/05/31 01:53:34;;;;;;;0.45;0.45;;;;;;;13.74;45.87;97135.25;29395;236;63004;-52
2023/05/31 01:54:06;;;;;;;0.40;0.40;;;;;;;13.73;45.78;97138.28;29395;326;63009;-52
2023/05/31 01:54:37;;;;;;;0.40;0.40;;;;;;;13.73;45.86;97133.66;29395;231;63005;-52
2023/05/31 01:55:09;;;;;;;0.50;0.50;;;;;;;13.74;45.99;97129.00;29395;252;63009;-53
2023/05/31 01:55:43;;;;;;;0.40;0.40;;;;;;;13.74;45.55;97134.44;29395;260;63005;-52
2023/05/31 01:56:15;;;;;;;0.50;0.50;;;;;;;13.77;45.75;97133.84;29394;282;64013;-52
2023/05/31 01:56:47;;;;;;;0.40;0.40;;;;;;;13.77;45.43;97133.84;29395;301;63014;-52
2023/05/31 01:57:20;;;;;;;0.43;0.43;;;;;;;13.78;45.49;97140.09;29395;242;63014;-52
2023/05/31 01:57:54;;;;;;;0.50;0.50;;;;;;;13.78;45.41;97130.00;29395;262;63004;-52
2023/05/31 01:58:27;;;;;;;0.40;0.40;;;;;;;13.78;45.54;97135.44;29395;272;63009;-52
2023/05/31 01:59:00;;;;;;;0.40;0.40;;;;;;;13.79;45.37;97137.06;29395;221;63014;-52
2023/05/31 01:59:35;;;;;;;0.40;0.40;;;;;;;13.79;45.79;97136.25;29395;258;63009;-52
2023/05/31 02:00:11;;;;;;;0.40;0.40;;;;;;;13.79;45.24;97137.06;29394;418;64008;-52
2023/05/31 02:00:49;;;;;;;0.50;0.50;;;;;;;13.80;44.52;97127.78;29395;225;63016;-52
2023/05/31 02:01:20;;;;;;;0.40;0.40;;;;;;;13.81;44.28;97123.94;29395;426;63005;-52
2023/05/31 02:01:52;;;;;;;0.50;0.50;;;;;;;13.81;44.61;97123.12;29395;403;63009;-53
2023/05/31 02:02:24;;;;;;;0.50;0.50;;;;;;;13.78;44.66;97118.28;29395;214;63005;-52
2023/05/31 02:02:56;;;;;;;0.50;0.50;;;;;;;13.77;44.57;97122.94;29394;229;64013;-52
2023/05/31 02:03:28;;;;;;;0.50;0.50;;;;;;;13.77;45.50;97133.03;29395;263;63007;-52
2023/05/31 02:03:59;;;;;;;0.40;0.40;;;;;;;13.74;45.57;97135.25;29395;233;63009;-52
2023/05/31 02:04:31;;;;;;;0.50;0.50;;;;;;;13.73;46.00;97130.09;29395;247;63005;-53
2023/05/31 02:05:08;;;;;;;0.50;0.50;;;;;;;13.69;46.78;97140.00;29395;242;63009;-52
2023/05/31 02:05:58;;;;;;;0.50;0.50;;;;;;;13.65;46.36;97136.28;29395;235;63004;-52
2023/05/31 02:06:29;;;;;;;0.40;0.40;;;;;;;13.65;46.00;97136.28;29395;244;63009;-52
2023/05/31 02:07:00;;;;;;;0.50;0.50;;;;;;;13.66;46.23;97140.63;29395;199;63013;-52
2023/05/31 02:07:32;;;;;;;0.47;0.47;;;;;;;13.65;46.98;97147.19;29394;203;64013;-52
2023/05/31 02:08:04;;;;;;;0.45;0.45;;;;;;;13.64;46.84;97145.56;29395;326;63004;-52
2023/05/31 02:08:37;;;;;;;0.95;0.95;;;;;;;13.64;46.40;97142.84;29395;254;63009;-52
2023/05/31 02:09:09;;;;;;;0.50;0.50;;;;;;;13.64;46.39;97134.66;29395;349;63005;-52
2023/05/31 02:09:40;;;;;;;0.50;0.50;;;;;;;13.64;45.96;97138.19;29394;248;64014;-53
2023/05/31 02:10:12;;;;;;;0.50;0.50;;;;;;;13.64;46.23;97140.94;29395;374;63005;-52
2023/05/31 02:10:43;;;;;;;0.40;0.40;;;;;;;13.63;45.96;97143.97;29395;342;63009;-53
2023/05/31 02:11:15;;;;;;;0.50;0.50;;;;;;;13.62;45.35;97137.69;29395;488;63005;-52
2023/05/31 02:11:46;;;;;;;0.40;0.40;;;;;;;13.61;45.58;97135.28;29395;244;63009;-53
2023/05/31 02:12:17;;;;;;;0.45;0.45;;;;;;;13.59;47.32;97140.22;29395;254;63005;-52
2023/05/31 02:12:54;;;;;;;0.50;0.50;;;;;;;13.54;47.54;97145.78;29395;227;63009;-52
2023/05/31 02:13:27;;;;;;;0.40;0.40;;;;;;;13.51;47.30;97151.88;29395;209;63004;-52
2023/05/31 02:13:59;;;;;;;0.40;0.40;;;;;;;13.52;46.85;97145.28;29395;293;63009;-52
2023/05/31 02:14:30;;;;;;;0.50;0.50;;;;;;;13.54;46.51;97140.34;29395;259;63009;-52
2023/05/31 02:15:02;;;;;;;0.40;0.40;;;;;;;13.56;45.85;97136.19;29394;197;64013;-51
2023/05/31 02:15:33;;;;;;;0.43;0.43;;;;;;;13.57;46.85;97140.53;29395;236;63004;-53
2023/05/31 02:16:05;;;;;;;0.40;0.40;;;;;;;13.56;47.07;97149.81;29395;230;63009;-53
2023/05/31 02:16:37;;;;;;;0.40;0.40;;;;;;;13.55;47.54;97147.41;29394;216;64009;-52
2023/05/31 02:17:08;;;;;;;0.47;0.47;;;;;;;13.54;48.40;97148.50;29394;208;64014;-52
2023/05/31 02:17:42;;;;;;;0.40;0.40;;;;;;;13.52;48.18;97142.56;29395;215;63005;-52
2023/05/31 02:18:16;;;;;;;0.47;0.47;;;;;;;13.51;47.65;97149.16;29395;230;63026;-52
2023/05/31 02:18:48;;;;;;;0.50;0.50;;;;;;;13.50;47.54;97145.63;29395;209;63012;-52
2023/05/31 02:19:19;;;;;;;0.40;0.40;;;;;;;13.50;47.24;97142.09;29395;219;63009;-52
2023/05/31 02:19:51;;;;;;;0.50;0.50;;;;;;;13.51;46.83;97147.22;29395;261;63005;-53
2023/05/31 02:20:22;;;;;;;0.40;0.40;;;;;;;13.50;47.60;97139.34;29395;466;63009;-53
2023/05/31 02:20:54;;;;;;;0.40;0.40;;;;;;;13.48;47.69;97149.75;29394;424;64009;-52
2023/05/31 02:21:26;;;;;;;0.50;0.50;;;;;;;13.44;48.90;97152.28;29395;370;63024;-52
2023/05/31 02:21:57;;;;;;;0.50;0.50;;;;;;;13.41;48.55;97153.69;29395;204;63004;-51
2023/05/31 02:22:31;;;;;;;0.50;0.50;;;;;;;13.41;47.92;97159.16;29395;199;63009;-53
2023/05/31 02:23:03;;;;;;;0.40;0.40;;;;;;;13.43;47.52;97152.59;29395;310;63004;-52
2023/05/31 02:23:34;;;;;;;0.40;0.40;;;;;;;13.41;48.27;97148.25;29395;374;63009;-52
2023/05/31 02:24:06;;;;;;;0.50;0.50;;;;;;;13.41;48.71;97144.72;29395;197;63005;-52
2023/05/31 02:24:37;;;;;;;0.50;0.50;;;;;;;13.39;48.98;97150.47;29395;233;63009;-52
2023/05/31 02:25:13;;;;;;;0.40;0.40;;;;;;;13.39;48.26;97144.22;29395;260;63007;-52
2023/05/31 02:25:48;;;;;;;0.50;0.50;;;;;;;13.39;48.10;97144.22;29394;286;64013;-52
2023/05/31 02:26:19;;;;;;;0.40;0.40;;;;;;;13.37;49.15;97152.69;29395;282;63005;-59
2023/05/31 02:26:51;;;;;;;0.50;0.50;;;;;;;13.35;49.29;97148.66;29395;259;63009;-52
2023/05/31 02:27:22;;;;;;;0.50;0.50;;;;;;;13.33;49.01;97146.22;29395;233;63005;-52
2023/05/31 02:27:53;;;;;;;0.50;0.50;;;;;;;13.33;48.95;97157.13;29394;399;64009;-53
2023/05/31 02:28:24;;;;;;;0.40;0.40;;;;;;;13.34;48.57;97152.47;29395;265;63004;-53
2023/05/31 02:28:56;;;;;;;18.90;17.95;;;;;;;13.35;48.17;97144.00;29385;202;65009;-52
2023/05/31 02:29:27;;;;;;;0.40;0.40;;;;;;;13.36;48.25;97145.63;29395;208;63004;-52
2023/05/31 02:29:58;;;;;;;0.50;0.50;;;;;;;13.36;49.18;97145.63;29395;319;63009;-52
2023/05/31 02:30:31;;;;;;;0.50;0.50;;;;;;;13.34;50.74;97153.28;29395;254;63004;-53
2023/05/31 02:31:02;;;;;;;0.50;0.50;;;;;;;13.31;49.78;97148.44;29394;249;64014;-52
2023/05/31 02:31:34;;;;;;;0.50;0.50;;;;;;;13.30;49.75;97157.72;29395;385;63005;-52
2023/05/31 02:32:06;;;;;;;0.50;0.50;;;;;;;13.30;49.20;97146.03;29395;269;63009;-52
2023/05/31 02:32:38;;;;;;;0.50;0.50;;;;;;;13.29;49.20;97150.66;29395;248;63005;-52
2023/05/31 02:33:09;;;;;;;0.50;0.50;;;;;;;13.27;48.30;97142.00;29395;538;63009;-52
2023/05/31 02:33:44;;;;;;;0.45;0.45;;;;;;;13.28;49.23;97149.06;29395;258;63005;-52
2023/05/31 02:34:16;;;;;;;0.50;0.50;;;;;;;13.29;48.66;97145.22;29395;205;63009;-52
2023/05/31 02:34:47;;;;;;;0.50;0.50;;;;;;;13.28;47.91;97149.06;29394;465;64009;-53
2023/05/31 02:35:18;;;;;;;0.50;0.50;;;;;;;13.24;48.60;97142.59;29395;266;63019;-52
2023/05/31 02:35:50;;;;;;;0.50;0.50;;;;;;;13.21;49.26;97145.91;29395;261;63004;-52
2023/05/31 02:36:22;;;;;;;0.50;0.50;;;;;;;13.19;49.65;97156.31;29395;250;63009;-53
2023/05/31 02:36:53;;;;;;;0.47;0.47;;;;;;;13.16;50.22;97151.50;29395;212;63004;-52
2023/05/31 02:37:24;;;;;;;0.43;0.43;;;;;;;13.17;50.18;97144.91;29395;204;63009;-52
2023/05/31 02:37:55;;;;;;;0.40;0.40;;;;;;;13.16;49.67;97148.78;29394;247;64008;-52
2023/05/31 02:38:27;;;;;;;0.40;0.40;;;;;;;13.16;50.11;97151.50;29395;199;63008;-52
2023/05/31 02:39:01;;;;;;;0.40;0.40;;;;;;;13.15;49.48;97147.12;29395;198;63005;-53
2023/05/31 02:39:32;;;;;;;0.47;0.47;;;;;;;13.17;48.68;97150.34;29395;255;63009;-53
2023/05/31 02:40:08;;;;;;;0.40;0.40;;;;;;;13.21;48.25;97140.47;29395;262;63005;-52
2023/05/31 02:40:41;;;;;;;0.50;0.50;;;;;;;13.23;48.22;97140.16;29395;253;63009;-52
2023/05/31 02:41:14;;;;;;;0.40;0.40;;;;;;;13.23;49.06;97146.44;29394;238;64009;-52